sensor_id;sensor_type;location;lat;lon;timestamp;pressure;altitude;pressure_sealevel;temperature;humidity
73821;BME280;62150;43.582;1.456;2022-12-18T06:27:47;100857.03;;;3.21;100.00
73821;BME280;62150;43.582;1.456;2022-12-18T06:30:15;100850.25;;;3.21;100.00
73821;BME280;62150;43.582;1.456;2022-12-18T06:32:42;100851.97;;;3.28;100.00
73821;BME280;62150;43.582;1.456;2022-12-18T06:35:10;100857.91;;;3.29;100.00
73821;BME280;62150;43.582;1.456;2022-12-18T06:37:38;100852.78;;;3.15;100.00
73821;BME280;62150;43.582;1.456;2022-12-18T06:40:06;100850.19;;;2.92;100.00
73821;BME280;62150;43.582;1.456;2022-12-18T06:42:34;100854.44;;;3.01;100.00
73821;BME280;62150;43.582;1.456;2022-12-18T06:45:04;100857.00;;;3.16;100.00
73821;BME280;62150;43.582;1.456;2022-12-18T06:47:31;100851.94;;;3.07;100.00
73821;BME280;62150;43.582;1.456;2022-12-18T06:49:59;100858.72;;;3.17;100.00
73821;BME280;62150;43.582;1.456;2022-12-18T06:52:26;100859.59;;;3.27;100.00
73821;BME280;62150;43.582;1.456;2022-12-18T06:54:54;100852.78;;;3.21;100.00
73821;BME280;62150;43.582;1.456;2022-12-18T06:57:22;100852.78;;;3.14;100.00
73821;BME280;62150;43.582;1.456;2022-12-18T06:59:49;100850.22;;;3.14;100.00
73821;BME280;62150;43.582;1.456;2022-12-18T07:02:18;100845.97;;;2.97;100.00
73821;BME280;62150;43.582;1.456;2022-12-18T07:04:45;100844.34;;;3.25;100.00
73821;BME280;62150;43.582;1.456;2022-12-18T07:07:13;100848.59;;;3.31;100.00
73821;BME280;62150;43.582;1.456;2022-12-18T07:09:40;100849.44;;;3.36;100.00
73821;BME280;62150;43.582;1.456;2022-12-18T07:12:08;100846.88;;;3.25;100.00
73821;BME280;62150;43.582;1.456;2022-12-18T07:14:35;100851.94;;;3.19;100.00
73821;BME280;62150;43.582;1.456;2022-12-18T07:17:03;100846.84;;;3.18;100.00
73821;BME280;62150;43.582;1.456;2022-12-18T07:19:32;100839.25;;;3.24;100.00
73821;BME280;62150;43.582;1.456;2022-12-18T07:21:59;100835.91;;;3.32;100.00
73821;BME280;62150;43.582;1.456;2022-12-18T07:24:27;100835.06;;;3.33;100.00
73821;BME280;62150;43.582;1.456;2022-12-18T07:26:55;100826.59;;;3.31;100.00
73821;BME280;62150;43.582;1.456;2022-12-18T07:29:22;100821.50;;;3.33;100.00
73821;BME280;62150;43.582;1.456;2022-12-18T07:31:50;100818.97;;;3.38;100.00
73821;BME280;62150;43.582;1.456;2022-12-18T07:34:17;100821.53;;;3.44;100.00
73821;BME280;62150;43.582;1.456;2022-12-18T07:36:46;100829.97;;;3.53;100.00
73821;BME280;62150;43.582;1.456;2022-12-18T07:39:14;100836.75;;;3.51;100.00
73821;BME280;62150;43.582;1.456;2022-12-18T07:41:41;100843.53;;;3.39;100.00
73821;BME280;62150;43.582;1.456;2022-12-18T07:44:12;100840.13;;;3.49;100.00
73821;BME280;62150;43.582;1.456;2022-12-18T07:46:40;100836.75;;;3.47;100.00
73821;BME280;62150;43.582;1.456;2022-12-18T07:49:08;100831.66;;;3.34;100.00
73821;BME280;62150;43.582;1.456;2022-12-18T07:51:35;100835.09;;;3.46;100.00
73821;BME280;62150;43.582;1.456;2022-12-18T07:54:04;100838.47;;;3.60;100.00
73821;BME280;62150;43.582;1.456;2022-12-18T07:56:32;100839.31;;;3.44;100.00
73821;BME280;62150;43.582;1.456;2022-12-18T07:59:00;100847.78;;;3.61;100.00
73821;BME280;62150;43.582;1.456;2022-12-18T08:01:27;100840.16;;;3.65;100.00
73821;BME280;62150;43.582;1.456;2022-12-18T08:03:55;100852.03;;;3.77;100.00
73821;BME280;62150;43.582;1.456;2022-12-18T08:06:23;100863.03;;;3.87;100.00
73821;BME280;62150;43.582;1.456;2022-12-18T08:08:51;100869.81;;;4.12;100.00
73821;BME280;62150;43.582;1.456;2022-12-18T08:11:21;100875.75;;;4.13;100.00
73821;BME280;62150;43.582;1.456;2022-12-18T08:13:49;100864.72;;;4.14;100.00
73821;BME280;62150;43.582;1.456;2022-12-18T08:16:17;100859.59;;;4.29;100.00
73821;BME280;62150;43.582;1.456;2022-12-18T08:18:45;100862.97;;;4.29;100.00
73821;BME280;62150;43.582;1.456;2022-12-18T08:21:15;100857.06;;;4.24;100.00
73821;BME280;62150;43.582;1.456;2022-12-18T08:23:43;100851.94;;;4.50;100.00
73821;BME280;62150;43.582;1.456;2022-12-18T08:26:11;100853.56;;;4.57;100.00
73821;BME280;62150;43.582;1.456;2022-12-18T08:28:41;100859.50;;;4.55;100.00
73821;BME280;62150;43.582;1.456;2022-12-18T08:31:09;100861.19;;;4.63;100.00
73821;BME280;62150;43.582;1.456;2022-12-18T08:33:37;100870.47;;;4.80;100.00
73821;BME280;62150;43.582;1.456;2022-12-18T08:36:06;100862.03;;;4.68;100.00
73821;BME280;62150;43.582;1.456;2022-12-18T08:38:35;100851.75;;;4.87;100.00
73821;BME280;62150;43.582;1.456;2022-12-18T08:41:03;100839.00;;;4.91;100.00
73821;BME280;62150;43.582;1.456;2022-12-18T08:43:31;100835.53;;;5.08;100.00
73821;BME280;62150;43.582;1.456;2022-12-18T08:46:18;100842.31;;;5.10;100.00
73821;BME280;62150;43.582;1.456;2022-12-18T08:48:46;100843.94;;;5.20;100.00
73821;BME280;62150;43.582;1.456;2022-12-18T08:51:16;100845.53;;;5.38;100.00
73821;BME280;62150;43.582;1.456;2022-12-18T08:53:44;100845.56;;;5.33;100.00
73821;BME280;62150;43.582;1.456;2022-12-18T08:56:13;100851.47;;;5.42;100.00
73821;BME280;62150;43.582;1.456;2022-12-18T08:58:41;100842.91;;;5.52;100.00
73821;BME280;62150;43.582;1.456;2022-12-18T09:01:10;100847.16;;;5.53;100.00
73821;BME280;62150;43.582;1.456;2022-12-18T09:03:39;100851.22;;;5.73;100.00
73821;BME280;62150;43.582;1.456;2022-12-18T09:06:08;100849.50;;;5.80;100.00
73821;BME280;62150;43.582;1.456;2022-12-18T09:08:35;100856.22;;;5.90;100.00
73821;BME280;62150;43.582;1.456;2022-12-18T09:11:03;100848.44;;;6.04;100.00
73821;BME280;62150;43.582;1.456;2022-12-18T09:13:34;100861.16;;;6.09;100.00
73821;BME280;62150;43.582;1.456;2022-12-18T09:16:05;100855.03;;;6.25;100.00
73821;BME280;62150;43.582;1.456;2022-12-18T09:18:33;100853.25;;;6.33;100.00
73821;BME280;62150;43.582;1.456;2022-12-18T09:21:08;100849.66;;;6.52;100.00
73821;BME280;62150;43.582;1.456;2022-12-18T09:23:36;100851.16;;;6.68;100.00
73821;BME280;62150;43.582;1.456;2022-12-18T09:26:04;100852.78;;;6.77;100.00
73821;BME280;62150;43.582;1.456;2022-12-18T09:28:32;100855.34;;;6.76;100.00
73821;BME280;62150;43.582;1.456;2022-12-18T09:31:02;100854.34;;;6.89;100.00
73821;BME280;62150;43.582;1.456;2022-12-18T09:33:30;100852.59;;;6.92;100.00
73821;BME280;62150;43.582;1.456;2022-12-18T09:36:00;100845.63;;;7.03;100.00
73821;BME280;62150;43.582;1.456;2022-12-18T09:38:29;100843.81;;;7.10;100.00
73821;BME280;62150;43.582;1.456;2022-12-18T09:40:59;100850.44;;;7.25;100.00
73821;BME280;62150;43.582;1.456;2022-12-18T09:43:33;100834.97;;;7.32;100.00
73821;BME280;62150;43.582;1.456;2022-12-18T09:46:06;100835.75;;;7.37;100.00
73821;BME280;62150;43.582;1.456;2022-12-18T09:48:36;100821.94;;;7.51;100.00
73821;BME280;62150;43.582;1.456;2022-12-18T09:51:12;100830.16;;;7.68;100.00
73821;BME280;62150;43.582;1.456;2022-12-18T09:53:46;100825.06;;;7.68;100.00
73821;BME280;62150;43.582;1.456;2022-12-18T09:56:18;100816.38;;;7.78;100.00
73821;BME280;62150;43.582;1.456;2022-12-18T09:58:53;100827.97;;;7.97;100.00
73821;BME280;62150;43.582;1.456;2022-12-18T10:01:23;100822.69;;;8.06;100.00
73821;BME280;62150;43.582;1.456;2022-12-18T10:03:51;100825.31;;;8.03;100.00
73821;BME280;62150;43.582;1.456;2022-12-18T10:06:23;100824.31;;;8.12;100.00
73821;BME280;62150;43.582;1.456;2022-12-18T10:08:58;100833.47;;;8.24;100.00
73821;BME280;62150;43.582;1.456;2022-12-18T10:11:35;100830.94;;;8.24;100.00
73821;BME280;62150;43.582;1.456;2022-12-18T10:14:11;100840.25;;;8.26;100.00
73821;BME280;62150;43.582;1.456;2022-12-18T10:16:53;100836.66;;;8.38;100.00
73821;BME280;62150;43.582;1.456;2022-12-18T10:19:34;100848.53;;;8.40;100.00
73821;BME280;62150;43.582;1.456;2022-12-18T10:22:14;100845.97;;;8.42;100.00
73821;BME280;62150;43.582;1.456;2022-12-18T10:24:58;100835.53;;;8.51;100.00
73821;BME280;62150;43.582;1.456;2022-12-18T10:27:28;100833.00;;;8.51;100.00
73821;BME280;62150;43.582;1.456;2022-12-18T10:29:56;100841.13;;;8.70;100.00
73821;BME280;62150;43.582;1.456;2022-12-18T10:32:26;100841.25;;;8.65;100.00
73821;BME280;62150;43.582;1.456;2022-12-18T10:34:55;100838.47;;;8.74;100.00
73821;BME280;62150;43.582;1.456;2022-12-18T10:37:25;100846.41;;;8.64;100.00
73821;BME280;62150;43.582;1.456;2022-12-18T10:40:09;100841.06;;;8.73;100.00
73821;BME280;62150;43.582;1.456;2022-12-18T10:42:37;100832.97;;;8.53;100.00
73821;BME280;62150;43.582;1.456;2022-12-18T10:45:10;100839.19;;;8.83;100.00
73821;BME280;62150;43.582;1.456;2022-12-18T10:47:43;100836.75;;;8.75;100.00
73821;BME280;62150;43.582;1.456;2022-12-18T10:50:23;100832.50;;;8.76;100.00
73821;BME280;62150;43.582;1.456;2022-12-18T10:52:55;100840.00;;;8.85;100.00
73821;BME280;62150;43.582;1.456;2022-12-18T10:55:30;100843.41;;;8.85;100.00
73821;BME280;62150;43.582;1.456;2022-12-18T10:58:18;100831.56;;;8.80;100.00
73821;BME280;62150;43.582;1.456;2022-12-18T11:01:03;100833.88;;;8.92;100.00
73821;BME280;62150;43.582;1.456;2022-12-18T11:03:33;100837.13;;;9.00;100.00
73821;BME280;62150;43.582;1.456;2022-12-18T11:06:05;100812.22;;;9.05;100.00
73821;BME280;62150;43.582;1.456;2022-12-18T11:08:33;100813.00;;;9.07;100.00
73821;BME280;62150;43.582;1.456;2022-12-18T11:11:02;100812.72;;;9.21;100.00
73821;BME280;62150;43.582;1.456;2022-12-18T11:13:32;100811.03;;;9.20;100.00
73821;BME280;62150;43.582;1.456;2022-12-18T11:16:00;100816.66;;;9.35;100.00
73821;BME280;62150;43.582;1.456;2022-12-18T11:18:33;100817.41;;;9.39;100.00
73821;BME280;62150;43.582;1.456;2022-12-18T11:21:07;100808.28;;;9.29;100.00
73821;BME280;62150;43.582;1.456;2022-12-18T11:23:37;100808.16;;;9.33;100.00
73821;BME280;62150;43.582;1.456;2022-12-18T11:26:13;100801.94;;;9.42;100.00
73821;BME280;62150;43.582;1.456;2022-12-18T11:28:44;100800.22;;;9.43;100.00
73821;BME280;62150;43.582;1.456;2022-12-18T11:31:19;100781.47;;;9.40;100.00
73821;BME280;62150;43.582;1.456;2022-12-18T11:33:52;100761.66;;;9.47;100.00
73821;BME280;62150;43.582;1.456;2022-12-18T11:36:22;100746.16;;;9.52;100.00
73821;BME280;62150;43.582;1.456;2022-12-18T11:38:52;100739.66;;;9.71;100.00
73821;BME280;62150;43.582;1.456;2022-12-18T11:41:28;100730.88;;;9.47;100.00
73821;BME280;62150;43.582;1.456;2022-12-18T11:44:15;100741.31;;;9.73;100.00
73821;BME280;62150;43.582;1.456;2022-12-18T11:46:49;100738.94;;;9.67;100.00
73821;BME280;62150;43.582;1.456;2022-12-18T11:49:22;100737.75;;;9.79;100.00
73821;BME280;62150;43.582;1.456;2022-12-18T11:51:55;100727.25;;;9.88;100.00
73821;BME280;62150;43.582;1.456;2022-12-18T11:54:24;100727.97;;;9.93;100.00
73821;BME280;62150;43.582;1.456;2022-12-18T11:56:58;100732.13;;;9.97;100.00
73821;BME280;62150;43.582;1.456;2022-12-18T11:59:34;100734.81;;;9.93;100.00
73821;BME280;62150;43.582;1.456;2022-12-18T12:02:33;100733.94;;;9.94;100.00
73821;BME280;62150;43.582;1.456;2022-12-18T12:05:20;100747.19;;;10.09;100.00
73821;BME280;62150;43.582;1.456;2022-12-18T12:07:56;100738.00;;;10.02;100.00
73821;BME280;62150;43.582;1.456;2022-12-18T12:10:39;100740.22;;;10.15;100.00
73821;BME280;62150;43.582;1.456;2022-12-18T12:13:28;100722.69;;;10.30;100.00
73821;BME280;62150;43.582;1.456;2022-12-18T12:16:09;100725.13;;;10.35;100.00
73821;BME280;62150;43.582;1.456;2022-12-18T12:18:51;100730.25;;;10.35;100.00
73821;BME280;62150;43.582;1.456;2022-12-18T12:21:28;100721.47;;;10.42;100.00
73821;BME280;62150;43.582;1.456;2022-12-18T12:24:03;100725.88;;;10.38;100.00
73821;BME280;62150;43.582;1.456;2022-12-18T12:26:42;100725.59;;;10.48;100.00
73821;BME280;62150;43.582;1.456;2022-12-18T12:29:27;100721.34;;;10.47;100.00
73821;BME280;62150;43.582;1.456;2022-12-18T12:32:09;100731.41;;;10.54;100.00
73821;BME280;62150;43.582;1.456;2022-12-18T12:34:48;100712.88;;;10.72;100.00
73821;BME280;62150;43.582;1.456;2022-12-18T12:37:27;100705.16;;;10.72;100.00
73821;BME280;62150;43.582;1.456;2022-12-18T12:39:56;100719.63;;;10.75;100.00
73821;BME280;62150;43.582;1.456;2022-12-18T12:42:31;100714.06;;;10.89;100.00
73821;BME280;62150;43.582;1.456;2022-12-18T12:45:36;100712.66;;;10.79;100.00
73821;BME280;62150;43.582;1.456;2022-12-18T12:48:11;100707.47;;;10.80;100.00
73821;BME280;62150;43.582;1.456;2022-12-18T12:50:42;100701.03;;;10.95;100.00
73821;BME280;62150;43.582;1.456;2022-12-18T12:53:25;100703.50;;;10.98;100.00
73821;BME280;62150;43.582;1.456;2022-12-18T12:55:56;100699.63;;;10.85;100.00
73821;BME280;62150;43.582;1.456;2022-12-18T12:58:31;100692.06;;;11.08;100.00
73821;BME280;62150;43.582;1.456;2022-12-18T13:01:10;100700.16;;;10.96;100.00
73821;BME280;62150;43.582;1.456;2022-12-18T13:03:47;100704.06;;;11.07;100.00
73821;BME280;62150;43.582;1.456;2022-12-18T13:06:28;100707.47;;;11.08;100.00
73821;BME280;62150;43.582;1.456;2022-12-18T13:09:01;100703.97;;;11.09;100.00
73821;BME280;62150;43.582;1.456;2022-12-18T13:11:34;100707.56;;;11.31;100.00
73821;BME280;62150;43.582;1.456;2022-12-18T13:14:31;100712.91;;;11.25;100.00
73821;BME280;62150;43.582;1.456;2022-12-18T13:17:28;100720.75;;;11.21;100.00
73821;BME280;62150;43.582;1.456;2022-12-18T13:20:17;100726.75;;;11.21;100.00
73821;BME280;62150;43.582;1.456;2022-12-18T13:22:46;100715.00;;;11.13;100.00
73821;BME280;62150;43.582;1.456;2022-12-18T13:25:37;100720.38;;;11.06;100.00
73821;BME280;62150;43.582;1.456;2022-12-18T13:28:08;100726.84;;;11.18;100.00
73821;BME280;62150;43.582;1.456;2022-12-18T13:30:45;100715.63;;;11.21;100.00
73821;BME280;62150;43.582;1.456;2022-12-18T13:33:42;100722.19;;;11.29;100.00
73821;BME280;62150;43.582;1.456;2022-12-18T13:36:29;100718.13;;;11.22;100.00
73821;BME280;62150;43.582;1.456;2022-12-18T13:39:23;100716.75;;;11.38;100.00
73821;BME280;62150;43.582;1.456;2022-12-18T13:41:54;100711.22;;;11.24;100.00
73821;BME280;62150;43.582;1.456;2022-12-18T13:45:01;100715.47;;;11.25;100.00
73821;BME280;62150;43.582;1.456;2022-12-18T13:47:34;100711.16;;;11.26;100.00
73821;BME280;62150;43.582;1.456;2022-12-18T13:50:10;100713.19;;;11.43;100.00
73821;BME280;62150;43.582;1.456;2022-12-18T13:52:47;100700.38;;;11.41;100.00
73821;BME280;62150;43.582;1.456;2022-12-18T13:55:18;100704.69;;;11.40;100.00
73821;BME280;62150;43.582;1.456;2022-12-18T13:57:46;100707.88;;;11.47;100.00
73821;BME280;62150;43.582;1.456;2022-12-18T14:00:24;100699.53;;;11.65;100.00
73821;BME280;62150;43.582;1.456;2022-12-18T14:02:54;100695.34;;;11.63;100.00
73821;BME280;62150;43.582;1.456;2022-12-18T14:05:24;100694.13;;;11.73;100.00
73821;BME280;62150;43.582;1.456;2022-12-18T14:07:53;100688.13;;;11.48;100.00
73821;BME280;62150;43.582;1.456;2022-12-18T14:10:21;100694.06;;;11.50;100.00
73821;BME280;62150;43.582;1.456;2022-12-18T14:12:50;100698.81;;;11.37;100.00
73821;BME280;62150;43.582;1.456;2022-12-18T14:15:30;100700.59;;;11.60;100.00
73821;BME280;62150;43.582;1.456;2022-12-18T14:18:01;100702.47;;;11.55;100.00
73821;BME280;62150;43.582;1.456;2022-12-18T14:20:32;100699.00;;;11.56;100.00
73821;BME280;62150;43.582;1.456;2022-12-18T14:23:01;100695.03;;;11.72;100.00
73821;BME280;62150;43.582;1.456;2022-12-18T14:25:30;100700.00;;;11.52;100.00
73821;BME280;62150;43.582;1.456;2022-12-18T14:28:09;100692.97;;;11.57;100.00
73821;BME280;62150;43.582;1.456;2022-12-18T14:30:40;100690.94;;;11.66;100.00
73821;BME280;62150;43.582;1.456;2022-12-18T14:33:11;100678.13;;;11.65;100.00
73821;BME280;62150;43.582;1.456;2022-12-18T14:35:42;100679.00;;;11.64;100.00
73821;BME280;62150;43.582;1.456;2022-12-18T14:38:21;100678.75;;;11.71;100.00
73821;BME280;62150;43.582;1.456;2022-12-18T14:40:53;100680.59;;;11.68;100.00
73821;BME280;62150;43.582;1.456;2022-12-18T14:43:22;100689.34;;;11.62;100.00
73821;BME280;62150;43.582;1.456;2022-12-18T14:45:50;100697.91;;;11.88;100.00
73821;BME280;62150;43.582;1.456;2022-12-18T14:48:20;100702.16;;;11.64;100.00
73821;BME280;62150;43.582;1.456;2022-12-18T14:50:57;100715.13;;;11.61;100.00
73821;BME280;62150;43.582;1.456;2022-12-18T14:53:33;100713.47;;;11.60;100.00
73821;BME280;62150;43.582;1.456;2022-12-18T14:56:02;100713.84;;;11.74;100.00
73821;BME280;62150;43.582;1.456;2022-12-18T14:58:30;100718.50;;;11.63;100.00
73821;BME280;62150;43.582;1.456;2022-12-18T15:00:58;100712.31;;;11.68;100.00
73821;BME280;62150;43.582;1.456;2022-12-18T15:03:26;100716.09;;;11.58;100.00
73821;BME280;62150;43.582;1.456;2022-12-18T15:05:55;100715.19;;;11.59;100.00
73821;BME280;62150;43.582;1.456;2022-12-18T15:08:30;100707.22;;;11.67;100.00
73821;BME280;62150;43.582;1.456;2022-12-18T15:10:58;100715.78;;;11.67;100.00
73821;BME280;62150;43.582;1.456;2022-12-18T15:13:26;100699.00;;;11.56;100.00
73821;BME280;62150;43.582;1.456;2022-12-18T15:15:55;100709.09;;;11.62;100.00
73821;BME280;62150;43.582;1.456;2022-12-18T15:18:28;100699.31;;;11.47;100.00
73821;BME280;62150;43.582;1.456;2022-12-18T15:21:00;100699.31;;;11.47;100.00
73821;BME280;62150;43.582;1.456;2022-12-18T15:23:37;100701.31;;;11.38;100.00
73821;BME280;62150;43.582;1.456;2022-12-18T15:26:14;100702.28;;;11.61;100.00
73821;BME280;62150;43.582;1.456;2022-12-18T15:28:45;100705.31;;;11.47;100.00
73821;BME280;62150;43.582;1.456;2022-12-18T15:31:27;100710.88;;;11.35;100.00
73821;BME280;62150;43.582;1.456;2022-12-18T15:34:14;100729.88;;;11.31;100.00
73821;BME280;62150;43.582;1.456;2022-12-18T15:36:47;100734.78;;;11.11;100.00
73821;BME280;62150;43.582;1.456;2022-12-18T15:39:15;100729.78;;;11.07;100.00
73821;BME280;62150;43.582;1.456;2022-12-18T15:41:42;100728.25;;;11.02;100.00
73821;BME280;62150;43.582;1.456;2022-12-18T15:44:30;100726.09;;;10.88;100.00
73821;BME280;62150;43.582;1.456;2022-12-18T15:46:57;100717.53;;;10.88;100.00
73821;BME280;62150;43.582;1.456;2022-12-18T15:49:24;100711.72;;;10.81;100.00
73821;BME280;62150;43.582;1.456;2022-12-18T15:51:56;100723.03;;;10.75;100.00
73821;BME280;62150;43.582;1.456;2022-12-18T15:54:25;100725.91;;;10.66;100.00
73821;BME280;62150;43.582;1.456;2022-12-18T15:57:09;100726.00;;;10.63;100.00
73821;BME280;62150;43.582;1.456;2022-12-18T15:59:54;100734.78;;;10.56;100.00
73821;BME280;62150;43.582;1.456;2022-12-18T16:02:24;100728.03;;;10.52;100.00
73821;BME280;62150;43.582;1.456;2022-12-18T16:04:52;100741.94;;;10.45;100.00
73821;BME280;62150;43.582;1.456;2022-12-18T16:07:22;100727.56;;;10.39;100.00
73821;BME280;62150;43.582;1.456;2022-12-18T16:09:51;100726.53;;;10.45;100.00
73821;BME280;62150;43.582;1.456;2022-12-18T16:12:20;100726.84;;;10.34;100.00
73821;BME280;62150;43.582;1.456;2022-12-18T16:14:49;100739.66;;;10.36;100.00
73821;BME280;62150;43.582;1.456;2022-12-18T16:17:17;100737.00;;;10.39;100.00
73821;BME280;62150;43.582;1.456;2022-12-18T16:19:45;100737.56;;;10.18;100.00
73821;BME280;62150;43.582;1.456;2022-12-18T16:22:22;100743.69;;;10.12;100.00
73821;BME280;62150;43.582;1.456;2022-12-18T16:24:51;100744.00;;;10.01;100.00
73821;BME280;62150;43.582;1.456;2022-12-18T16:27:19;100744.69;;;10.06;100.00
73821;BME280;62150;43.582;1.456;2022-12-18T16:29:47;100742.19;;;10.05;100.00
73821;BME280;62150;43.582;1.456;2022-12-18T16:32:17;100741.44;;;10.01;100.00
73821;BME280;62150;43.582;1.456;2022-12-18T16:34:46;100743.16;;;10.01;100.00
73821;BME280;62150;43.582;1.456;2022-12-18T16:37:15;100750.88;;;10.01;100.00
73821;BME280;62150;43.582;1.456;2022-12-18T16:39:44;100759.50;;;9.98;100.00
73821;BME280;62150;43.582;1.456;2022-12-18T16:42:15;100757.31;;;9.83;100.00
73821;BME280;62150;43.582;1.456;2022-12-18T16:44:45;100763.06;;;9.93;100.00
73821;BME280;62150;43.582;1.456;2022-12-18T16:47:14;100762.28;;;9.89;100.00
73821;BME280;62150;43.582;1.456;2022-12-18T16:49:41;100757.16;;;9.89;100.00
73821;BME280;62150;43.582;1.456;2022-12-18T16:52:10;100759.56;;;9.95;100.00
73821;BME280;62150;43.582;1.456;2022-12-18T16:54:38;100757.25;;;9.86;100.00
73821;BME280;62150;43.582;1.456;2022-12-18T16:57:08;100759.72;;;9.89;100.00
73821;BME280;62150;43.582;1.456;2022-12-18T16:59:36;100748.66;;;9.87;100.00
73821;BME280;62150;43.582;1.456;2022-12-18T17:02:03;100751.88;;;9.95;100.00
73821;BME280;62150;43.582;1.456;2022-12-18T17:04:31;100751.94;;;9.92;100.00
73821;BME280;62150;43.582;1.456;2022-12-18T17:06:59;100747.84;;;9.85;100.00
73821;BME280;62150;43.582;1.456;2022-12-18T17:09:29;100753.00;;;9.85;100.00
73821;BME280;62150;43.582;1.456;2022-12-18T17:11:57;100767.59;;;9.83;100.00
73821;BME280;62150;43.582;1.456;2022-12-18T17:14:26;100764.97;;;9.85;100.00
73821;BME280;62150;43.582;1.456;2022-12-18T17:16:59;100762.38;;;9.86;100.00
73821;BME280;62150;43.582;1.456;2022-12-18T17:19:27;100760.50;;;9.93;100.00
73821;BME280;62150;43.582;1.456;2022-12-18T17:21:55;100753.78;;;9.87;100.00
73821;BME280;62150;43.582;1.456;2022-12-18T17:24:22;100767.53;;;9.85;100.00
73821;BME280;62150;43.582;1.456;2022-12-18T17:26:53;100763.75;;;9.99;100.00
73821;BME280;62150;43.582;1.456;2022-12-18T17:29:56;100760.59;;;9.88;100.00
73821;BME280;62150;43.582;1.456;2022-12-18T17:32:27;100764.72;;;9.95;100.00
73821;BME280;62150;43.582;1.456;2022-12-18T17:34:55;100756.09;;;9.98;100.00
73821;BME280;62150;43.582;1.456;2022-12-18T17:37:23;100747.28;;;10.06;100.00
73821;BME280;62150;43.582;1.456;2022-12-18T17:39:52;100738.91;;;10.00;100.00
73821;BME280;62150;43.582;1.456;2022-12-18T17:42:21;100722.22;;;10.15;100.00
73821;BME280;62150;43.582;1.456;2022-12-18T17:44:49;100732.91;;;10.01;100.00
73821;BME280;62150;43.582;1.456;2022-12-18T17:50:00;100737.44;;;10.24;100.00
73821;BME280;62150;43.582;1.456;2022-12-18T17:52:28;100726.00;;;10.34;100.00
73821;BME280;62150;43.582;1.456;2022-12-18T17:54:56;100727.63;;;10.38;100.00
73821;BME280;62150;43.582;1.456;2022-12-18T17:57:24;100736.28;;;10.34;100.00
73821;BME280;62150;43.582;1.456;2022-12-18T17:59:51;100750.63;;;10.41;100.00
73821;BME280;62150;43.582;1.456;2022-12-18T18:02:20;100747.84;;;10.49;100.00
73821;BME280;62150;43.582;1.456;2022-12-18T18:04:48;100753.81;;;10.49;100.00
73821;BME280;62150;43.582;1.456;2022-12-18T18:07:16;100762.97;;;10.58;100.00
73821;BME280;62150;43.582;1.456;2022-12-18T18:09:43;100752.94;;;10.50;100.00
73821;BME280;62150;43.582;1.456;2022-12-18T18:12:11;100757.84;;;10.58;100.00
73821;BME280;62150;43.582;1.456;2022-12-18T18:14:56;100758.78;;;10.55;100.00
73821;BME280;62150;43.582;1.456;2022-12-18T18:17:25;100754.22;;;10.65;100.00
73821;BME280;62150;43.582;1.456;2022-12-18T18:19:52;100762.34;;;10.50;100.00
73821;BME280;62150;43.582;1.456;2022-12-18T18:22:20;100764.63;;;10.60;100.00
73821;BME280;62150;43.582;1.456;2022-12-18T18:24:47;100763.06;;;10.55;100.00
73821;BME280;62150;43.582;1.456;2022-12-18T18:27:15;100772.59;;;10.51;100.00
73821;BME280;62150;43.582;1.456;2022-12-18T18:29:43;100771.41;;;10.63;100.00
73821;BME280;62150;43.582;1.456;2022-12-18T18:32:11;100776.53;;;10.63;100.00
73821;BME280;62150;43.582;1.456;2022-12-18T18:34:40;100773.19;;;10.61;100.00
73821;BME280;62150;43.582;1.456;2022-12-18T18:37:12;100781.47;;;10.70;100.00
73821;BME280;62150;43.582;1.456;2022-12-18T18:39:40;100772.91;;;10.70;100.00
73821;BME280;62150;43.582;1.456;2022-12-18T18:42:08;100766.44;;;10.57;100.00
73821;BME280;62150;43.582;1.456;2022-12-18T18:44:35;100754.41;;;10.59;100.00
73821;BME280;62150;43.582;1.456;2022-12-18T18:47:03;100770.47;;;10.65;100.00
73821;BME280;62150;43.582;1.456;2022-12-18T18:49:30;100778.97;;;10.67;100.00
73821;BME280;62150;43.582;1.456;2022-12-18T18:51:59;100780.59;;;10.71;100.00
73821;BME280;62150;43.582;1.456;2022-12-18T18:54:27;100783.16;;;10.71;100.00
73821;BME280;62150;43.582;1.456;2022-12-18T18:56:56;100773.13;;;10.62;100.00
73821;BME280;62150;43.582;1.456;2022-12-18T18:59:23;100767.28;;;10.57;100.00
73821;BME280;62150;43.582;1.456;2022-12-18T19:01:51;100770.56;;;10.62;100.00
73821;BME280;62150;43.582;1.456;2022-12-18T19:04:19;100765.34;;;10.65;100.00
73821;BME280;62150;43.582;1.456;2022-12-18T19:06:46;100768.84;;;10.63;100.00
73821;BME280;62150;43.582;1.456;2022-12-18T19:09:15;100771.63;;;10.55;100.00
73821;BME280;62150;43.582;1.456;2022-12-18T19:11:43;100780.84;;;10.62;100.00
73821;BME280;62150;43.582;1.456;2022-12-18T19:14:43;100785.97;;;10.62;100.00
73821;BME280;62150;43.582;1.456;2022-12-18T19:17:10;100782.25;;;10.72;100.00
73821;BME280;62150;43.582;1.456;2022-12-18T19:19:38;100781.47;;;10.70;100.00
73821;BME280;62150;43.582;1.456;2022-12-18T19:22:05;100772.50;;;10.54;100.00
73821;BME280;62150;43.582;1.456;2022-12-18T19:24:35;100768.25;;;10.53;100.00
73821;BME280;62150;43.582;1.456;2022-12-18T19:27:03;100788.75;;;10.55;100.00
73821;BME280;62150;43.582;1.456;2022-12-18T19:29:31;100788.88;;;10.80;100.00
73821;BME280;62150;43.582;1.456;2022-12-18T19:31:58;100787.41;;;10.72;100.00
73821;BME280;62150;43.582;1.456;2022-12-18T19:34:26;100798.41;;;10.76;100.00
73821;BME280;62150;43.582;1.456;2022-12-18T19:36:53;100797.53;;;10.77;100.00
73821;BME280;62150;43.582;1.456;2022-12-18T19:39:21;100789.25;;;10.67;100.00